createdAt,value
2023-01-20T00:01:49.834Z,72.30
2023-01-20T00:04:19.466Z,72.40
2023-01-20T00:06:46.908Z,71.80
2023-01-20T00:09:16.740Z,71.50
2023-01-20T00:11:44.776Z,71.40
2023-01-20T00:14:12.541Z,71.70
2023-01-20T00:16:39.948Z,72.90
2023-01-20T00:19:07.576Z,72.60
2023-01-20T00:21:35.222Z,71.80
2023-01-20T00:24:02.440Z,72.50
2023-01-20T00:26:29.611Z,72.20
2023-01-20T00:28:57.839Z,71.90
2023-01-20T00:31:26.221Z,71.60
2023-01-20T00:33:55.810Z,71.70
2023-01-20T00:36:25.324Z,72.50
2023-01-20T00:38:52.786Z,72.20
2023-01-20T00:41:24.496Z,72.40
2023-01-20T00:43:51.830Z,72.00
2023-01-20T00:46:19.101Z,71.70
2023-01-20T00:48:46.454Z,71.80
2023-01-20T00:51:15.162Z,72.00
2023-01-20T00:53:42.306Z,71.60
2023-01-20T00:56:09.603Z,71.70
2023-01-20T00:58:36.934Z,71.70
2023-01-20T01:01:04.347Z,72.50
2023-01-20T01:03:31.629Z,72.40
2023-01-20T01:06:31.035Z,72.40
2023-01-20T01:08:58.376Z,72.80
2023-01-20T01:11:25.524Z,73.00
2023-01-20T01:13:54.901Z,72.50
2023-01-20T01:16:22.044Z,72.30
2023-01-20T01:18:49.323Z,72.20
2023-01-20T01:21:31.653Z,72.70
2023-01-20T01:23:58.808Z,72.30
2023-01-20T01:26:26.012Z,72.50
2023-01-20T01:28:53.541Z,72.90
2023-01-20T01:31:22.131Z,73.20
2023-01-20T01:33:50.503Z,72.70
2023-01-20T01:36:18.118Z,72.60
2023-01-20T01:38:45.560Z,72.50
2023-01-20T01:41:26.326Z,72.40
2023-01-20T01:44:21.289Z,72.40
2023-01-20T01:46:48.473Z,72.20
2023-01-20T01:49:15.639Z,72.20
2023-01-20T01:51:53.976Z,72.90
2023-01-20T01:54:25.708Z,72.70
2023-01-20T01:56:53.830Z,72.40
2023-01-20T01:59:21.604Z,72.50
2023-01-20T02:01:51.695Z,73.40
2023-01-20T02:04:25.465Z,73.40
2023-01-20T02:06:56.380Z,74.10
2023-01-20T02:09:25.423Z,74.40
2023-01-20T02:11:55.578Z,74.60
2023-01-20T02:14:31.864Z,73.90
2023-01-20T02:17:20.661Z,73.80
2023-01-20T02:20:21.203Z,74.00
2023-01-20T02:23:06.339Z,74.00
2023-01-20T02:25:57.565Z,74.60
2023-01-20T02:29:05.659Z,74.70
2023-01-20T02:32:03.802Z,74.10
2023-01-20T02:34:37.996Z,74.00
2023-01-20T02:37:23.594Z,74.60
2023-01-20T02:40:17.010Z,75.20
2023-01-20T02:42:56.342Z,75.40
2023-01-20T02:45:47.941Z,75.80
2023-01-20T02:48:39.989Z,75.60
2023-01-20T02:51:16.701Z,74.90
2023-01-20T02:54:05.215Z,75.10
2023-01-20T02:56:34.894Z,75.20
2023-01-20T02:59:12.281Z,75.30
2023-01-20T03:01:43.572Z,75.00
2023-01-20T03:04:16.799Z,74.60
2023-01-20T03:06:49.568Z,74.70
2023-01-20T03:09:20.768Z,74.60
2023-01-20T03:11:54.138Z,75.00
2023-01-20T03:14:21.327Z,74.90
2023-01-20T03:16:50.451Z,75.90
2023-01-20T03:19:20.549Z,75.60
2023-01-20T03:21:48.704Z,75.70
2023-01-20T03:24:16.104Z,75.50
2023-01-20T03:26:43.603Z,75.10
2023-01-20T03:29:16.149Z,75.00
2023-01-20T03:31:48.226Z,74.70
2023-01-20T03:34:21.326Z,74.70
2023-01-20T03:36:49.479Z,74.70
2023-01-20T03:39:17.487Z,74.40
2023-01-20T03:42:07.356Z,74.50
2023-01-20T03:44:50.186Z,76.10
2023-01-20T03:47:17.330Z,76.50
2023-01-20T03:49:56.455Z,76.10
2023-01-20T03:52:47.785Z,76.50
2023-01-20T03:55:15.914Z,75.90
2023-01-20T03:58:07.066Z,75.60
2023-01-20T04:00:38.990Z,75.50
2023-01-20T04:03:11.540Z,75.70
2023-01-20T04:05:40.333Z,75.30
2023-01-20T04:08:10.092Z,75.30
2023-01-20T04:10:41.867Z,75.20
2023-01-20T04:13:12.251Z,75.30
2023-01-20T04:15:44.377Z,75.10
2023-01-20T04:18:18.700Z,75.20
2023-01-20T04:20:49.323Z,75.00
2023-01-20T04:23:48.233Z,75.20
2023-01-20T04:26:15.478Z,75.10
2023-01-20T04:28:43.222Z,74.90
2023-01-20T04:31:28.753Z,74.90
2023-01-20T04:33:57.092Z,74.80
2023-01-20T04:36:24.250Z,74.80
2023-01-20T04:38:51.548Z,74.70
2023-01-20T04:41:19.106Z,74.70
2023-01-20T04:43:46.966Z,74.70
2023-01-20T04:46:15.655Z,74.70
2023-01-20T04:48:45.644Z,74.70
2023-01-20T04:51:13.700Z,74.70
2023-01-20T04:53:41.228Z,74.70
2023-01-20T04:56:13.088Z,74.70
2023-01-20T04:58:41.096Z,74.50
2023-01-20T05:01:08.843Z,74.50
2023-01-20T05:03:36.118Z,74.50
2023-01-20T05:06:03.426Z,74.70
2023-01-20T05:08:30.567Z,74.60
2023-01-20T05:10:57.899Z,74.50
2023-01-20T05:13:25.183Z,74.60
2023-01-20T05:15:52.491Z,74.50
2023-01-20T05:19:11.001Z,74.60
2023-01-20T05:21:38.400Z,74.60
2023-01-20T05:24:05.921Z,74.70
2023-01-20T05:26:33.299Z,74.60
2023-01-20T05:29:00.726Z,74.70
2023-01-20T05:31:27.907Z,74.60
2023-01-20T05:33:55.389Z,74.60
2023-01-20T05:36:22.851Z,74.70
2023-01-20T05:38:50.141Z,74.70
2023-01-20T05:41:17.385Z,74.70
2023-01-20T05:43:44.568Z,74.70
2023-01-20T05:46:11.784Z,74.70
2023-01-20T05:48:38.891Z,74.70
2023-01-20T05:51:13.829Z,74.60
2023-01-20T05:53:41.137Z,74.60
2023-01-20T05:56:08.627Z,74.40
2023-01-20T05:58:35.802Z,74.90
2023-01-20T06:01:08.174Z,74.80
2023-01-20T06:03:35.892Z,75.00
2023-01-20T06:06:06.780Z,75.00
2023-01-20T06:08:35.042Z,75.00
2023-01-20T06:11:05.203Z,75.30
2023-01-20T06:13:32.362Z,75.30
2023-01-20T06:15:59.564Z,75.20
2023-01-20T06:18:26.658Z,75.40
2023-01-20T06:20:58.734Z,75.40
2023-01-20T06:23:28.698Z,75.30
2023-01-20T06:26:07.443Z,75.40
2023-01-20T06:28:34.723Z,75.30
2023-01-20T06:31:04.759Z,75.60
2023-01-20T06:33:40.590Z,75.60
2023-01-20T06:36:09.057Z,76.30
2023-01-20T06:38:44.614Z,75.90
2023-01-20T06:41:31.252Z,75.80
2023-01-20T06:44:00.568Z,76.00
2023-01-20T06:46:27.906Z,75.90
2023-01-20T06:49:00.529Z,75.80
2023-01-20T06:51:30.276Z,75.80
2023-01-20T06:53:57.868Z,75.90
2023-01-20T06:56:25.349Z,76.00
2023-01-20T06:58:52.634Z,76.30
2023-01-20T07:01:23.509Z,76.20
2023-01-20T07:03:51.124Z,76.10
2023-01-20T07:06:25.047Z,76.40
2023-01-20T07:08:52.229Z,76.40
2023-01-20T07:11:19.853Z,76.20
2023-01-20T07:13:47.105Z,76.30
2023-01-20T07:16:16.026Z,76.40
2023-01-20T07:18:47.311Z,76.40
2023-01-20T07:21:14.632Z,76.40
2023-01-20T07:23:41.990Z,76.30
2023-01-20T07:26:11.651Z,76.10
2023-01-20T07:28:39.412Z,76.10
2023-01-20T07:31:15.456Z,76.00
2023-01-20T07:33:43.092Z,75.30
2023-01-20T07:36:11.888Z,75.60
2023-01-20T07:38:39.337Z,75.20
2023-01-20T07:41:10.896Z,75.30
2023-01-20T07:43:38.113Z,75.20
2023-01-20T07:46:05.669Z,75.50
2023-01-20T07:48:33.975Z,75.20
2023-01-20T07:51:05.396Z,74.90
2023-01-20T07:53:38.040Z,74.90
2023-01-20T07:56:13.056Z,74.40
2023-01-20T07:58:40.269Z,75.50
2023-01-20T08:01:13.184Z,75.20
2023-01-20T08:03:40.485Z,74.70
2023-01-20T08:06:09.932Z,74.70
2023-01-20T08:08:37.495Z,74.70
2023-01-20T08:11:06.392Z,74.40
2023-01-20T08:13:34.359Z,74.00
2023-01-20T08:16:03.957Z,74.20
2023-01-20T08:18:32.476Z,74.60
2023-01-20T08:21:00.032Z,73.90
2023-01-20T08:23:27.476Z,73.90
2023-01-20T08:26:00.051Z,73.90
2023-01-20T08:28:28.153Z,73.90
2023-01-20T08:31:02.443Z,74.00
2023-01-20T08:33:29.683Z,74.10
2023-01-20T08:35:59.266Z,74.10
2023-01-20T08:38:26.383Z,73.80
2023-01-20T08:40:53.584Z,73.40
2023-01-20T08:43:20.756Z,73.50
2023-01-20T08:45:48.224Z,73.40
2023-01-20T08:48:46.828Z,73.10
2023-01-20T08:51:20.042Z,73.30
2023-01-20T08:53:47.860Z,73.00
2023-01-20T08:56:15.972Z,72.90
2023-01-20T08:58:43.386Z,73.00
2023-01-20T09:01:17.436Z,73.20
2023-01-20T09:03:59.233Z,73.40
2023-01-20T09:06:36.849Z,73.30
2023-01-20T09:09:04.744Z,73.20
2023-01-20T09:11:32.133Z,73.30
2023-01-20T09:13:59.579Z,73.10
2023-01-20T09:16:26.836Z,72.90
2023-01-20T09:18:54.075Z,72.80
2023-01-20T09:21:21.525Z,72.40
2023-01-20T09:23:48.936Z,72.50
2023-01-20T09:26:29.817Z,72.20
2023-01-20T09:29:09.555Z,72.00
2023-01-20T09:31:38.915Z,72.30
2023-01-20T09:34:06.197Z,72.40
2023-01-20T09:36:33.431Z,72.00
2023-01-20T09:39:19.172Z,72.00
2023-01-20T09:42:08.875Z,71.80
2023-01-20T09:45:25.357Z,71.80
2023-01-20T09:48:05.916Z,71.70
2023-01-20T09:51:15.376Z,71.50
2023-01-20T09:53:56.187Z,71.60
2023-01-20T09:56:26.286Z,71.70
2023-01-20T09:59:12.517Z,71.40
2023-01-20T10:01:50.426Z,71.10
2023-01-20T10:04:38.853Z,71.00
2023-01-20T10:07:58.688Z,71.20
2023-01-20T10:10:38.943Z,71.40
2023-01-20T10:13:14.539Z,71.70
2023-01-20T10:15:46.438Z,71.90
2023-01-20T10:18:22.045Z,71.70
2023-01-20T10:20:52.179Z,71.70
2023-01-20T10:23:27.575Z,71.30
2023-01-20T10:26:08.036Z,71.10
2023-01-20T10:28:42.248Z,71.20
2023-01-20T10:31:13.303Z,70.90
2023-01-20T10:33:44.181Z,70.80
2023-01-20T10:36:18.406Z,71.00
2023-01-20T10:38:58.190Z,71.30
2023-01-20T10:41:38.375Z,71.30
2023-01-20T10:44:14.909Z,71.60
2023-01-20T10:47:13.452Z,72.00
2023-01-20T10:50:04.028Z,71.50
2023-01-20T10:52:50.603Z,71.50
2023-01-20T10:55:34.413Z,71.50
2023-01-20T10:58:22.470Z,71.60
2023-01-20T11:00:50.230Z,71.30
2023-01-20T11:03:23.094Z,71.60
2023-01-20T11:05:51.975Z,71.70
2023-01-20T11:08:26.392Z,71.70
2023-01-20T11:10:58.054Z,70.70
2023-01-20T11:13:25.198Z,70.50
2023-01-20T11:15:59.763Z,70.10
2023-01-20T11:18:29.890Z,69.50
2023-01-20T11:21:08.283Z,69.60
2023-01-20T11:23:39.905Z,69.50
2023-01-20T11:26:16.355Z,69.50
2023-01-20T11:28:51.851Z,68.80
2023-01-20T11:31:20.489Z,69.20
2023-01-20T11:33:59.514Z,69.00
2023-01-20T11:36:27.697Z,67.80
2023-01-20T11:38:57.080Z,67.70
2023-01-20T11:41:30.097Z,67.70
2023-01-20T11:43:59.751Z,67.50
2023-01-20T11:46:32.334Z,67.00
2023-01-20T11:49:19.973Z,67.40
2023-01-20T11:51:55.369Z,65.20
2023-01-20T11:54:28.444Z,64.50
2023-01-20T11:56:59.455Z,63.90
2023-01-20T11:59:32.302Z,64.10
2023-01-20T12:02:23.390Z,64.60
2023-01-20T12:04:59.464Z,64.50
2023-01-20T12:07:35.353Z,64.60
2023-01-20T12:10:13.600Z,63.10
2023-01-20T12:13:05.045Z,62.80
2023-01-20T12:15:35.366Z,63.20
2023-01-20T12:18:15.509Z,63.40
2023-01-20T12:21:07.968Z,63.10
2023-01-20T12:23:47.816Z,63.00
2023-01-20T12:26:21.287Z,63.10
2023-01-20T12:29:21.506Z,63.00
2023-01-20T12:31:49.663Z,62.90
2023-01-20T12:34:23.462Z,62.80
2023-01-20T12:37:23.452Z,63.20
2023-01-20T12:40:11.847Z,63.40
2023-01-20T12:43:12.709Z,63.20
2023-01-20T12:45:53.245Z,62.90
2023-01-20T12:48:42.807Z,63.40
2023-01-20T12:51:30.827Z,63.80
2023-01-20T12:54:48.271Z,63.60
2023-01-20T12:57:22.109Z,63.30
2023-01-20T12:59:59.718Z,63.10
2023-01-20T13:02:42.307Z,63.50
2023-01-20T13:05:24.377Z,63.90
2023-01-20T13:08:10.590Z,64.00
2023-01-20T13:10:37.715Z,64.10
2023-01-20T13:13:58.039Z,64.30
2023-01-20T13:16:43.964Z,64.30
2023-01-20T13:19:16.006Z,64.20
2023-01-20T13:21:43.227Z,64.10
2023-01-20T13:24:24.342Z,63.50
2023-01-20T13:26:52.321Z,63.30
2023-01-20T13:29:41.712Z,63.90
2023-01-20T13:32:30.882Z,63.00
2023-01-20T13:34:59.819Z,63.20
2023-01-20T13:37:29.859Z,63.30
2023-01-20T13:39:59.915Z,63.30
2023-01-20T13:42:39.026Z,63.60
2023-01-20T13:45:12.337Z,63.70
2023-01-20T13:48:00.346Z,63.80
2023-01-20T13:50:35.651Z,63.80
2023-01-20T13:53:14.409Z,64.10
2023-01-20T13:55:41.634Z,64.10
2023-01-20T13:58:33.450Z,64.00
2023-01-20T14:01:03.862Z,64.20
2023-01-20T14:03:38.374Z,64.40
2023-01-20T14:06:14.749Z,64.50
2023-01-20T14:08:45.765Z,64.50
2023-01-20T14:11:22.954Z,64.30
2023-01-20T14:13:58.955Z,64.40
2023-01-20T14:16:30.535Z,64.40
2023-01-20T14:19:15.972Z,64.60
2023-01-20T14:21:43.458Z,64.90
2023-01-20T14:24:36.533Z,64.60
2023-01-20T14:27:20.353Z,64.60
2023-01-20T14:29:53.161Z,64.80
2023-01-20T14:32:28.536Z,65.50
2023-01-20T14:34:57.061Z,64.70
2023-01-20T14:37:28.429Z,65.10
2023-01-20T14:39:58.844Z,65.10
2023-01-20T14:42:28.508Z,65.20
2023-01-20T14:44:57.356Z,65.20
2023-01-20T14:47:26.212Z,65.40
2023-01-20T14:49:54.689Z,65.50
2023-01-20T14:52:24.702Z,65.60
2023-01-20T14:54:53.125Z,65.60
2023-01-20T14:57:30.175Z,65.60
2023-01-20T15:00:09.137Z,65.60
2023-01-20T15:02:37.494Z,65.50
2023-01-20T15:05:29.421Z,65.60
2023-01-20T15:08:26.364Z,65.70
2023-01-20T15:11:12.897Z,65.60
2023-01-20T15:13:41.868Z,65.70
2023-01-20T15:16:24.160Z,65.80
2023-01-20T15:19:22.874Z,65.80
2023-01-20T15:22:17.029Z,65.60
2023-01-20T15:24:47.305Z,65.60
2023-01-20T15:27:22.716Z,65.60
2023-01-20T15:30:13.843Z,66.00
2023-01-20T15:32:41.273Z,65.80
2023-01-20T15:35:13.005Z,65.70
2023-01-20T15:37:42.333Z,65.50
2023-01-20T15:40:14.898Z,65.60
2023-01-20T15:42:42.476Z,65.50
2023-01-20T15:45:13.670Z,65.40
2023-01-20T15:47:41.610Z,65.40
2023-01-20T15:50:21.469Z,65.30
2023-01-20T15:52:49.130Z,65.30
2023-01-20T15:55:18.098Z,65.20
2023-01-20T15:57:49.628Z,65.50
2023-01-20T16:00:21.050Z,65.50
2023-01-20T16:02:48.797Z,65.50
2023-01-20T16:05:17.881Z,65.50
2023-01-20T16:07:48.447Z,65.30
2023-01-20T16:10:18.719Z,65.30
2023-01-20T16:12:47.155Z,65.30
2023-01-20T16:15:17.255Z,65.10
2023-01-20T16:17:44.937Z,65.10
2023-01-20T16:20:20.523Z,65.20
2023-01-20T16:22:47.661Z,65.20
2023-01-20T16:25:15.127Z,65.00
2023-01-20T16:27:43.508Z,65.30
2023-01-20T16:30:18.433Z,65.20
2023-01-20T16:32:46.732Z,66.00
2023-01-20T16:35:15.327Z,65.40
2023-01-20T16:37:43.220Z,65.20
2023-01-20T16:40:19.258Z,65.50
2023-01-20T16:42:46.886Z,65.20
2023-01-20T16:45:30.084Z,65.30
2023-01-20T16:47:57.559Z,65.50
2023-01-20T16:50:27.939Z,65.40
2023-01-20T16:52:55.374Z,65.40
2023-01-20T16:55:23.976Z,65.50
2023-01-20T16:57:51.134Z,65.50
2023-01-20T17:00:19.542Z,65.50
2023-01-20T17:02:53.395Z,65.60
2023-01-20T17:05:22.836Z,65.40
2023-01-20T17:07:50.473Z,65.50
2023-01-20T17:10:18.357Z,65.50
2023-01-20T17:12:48.901Z,65.50
2023-01-20T17:15:16.449Z,65.50
2023-01-20T17:17:43.781Z,65.50
2023-01-20T17:20:11.166Z,65.50
2023-01-20T17:22:39.891Z,65.50
2023-01-20T17:25:08.799Z,65.50
2023-01-20T17:27:37.157Z,65.40
2023-01-20T17:30:10.223Z,65.60
2023-01-20T17:32:38.002Z,65.50
2023-01-20T17:35:05.471Z,65.60
2023-01-20T17:37:34.018Z,65.60
2023-01-20T17:40:01.351Z,65.80
2023-01-20T17:42:28.548Z,65.80
2023-01-20T17:45:01.366Z,66.40
2023-01-20T17:47:31.317Z,66.60
2023-01-20T17:49:58.756Z,66.40
2023-01-20T17:52:27.470Z,66.10
2023-01-20T17:54:54.639Z,66.10
2023-01-20T17:57:21.729Z,66.30
2023-01-20T17:59:49.100Z,66.40
2023-01-20T18:02:18.603Z,66.50
2023-01-20T18:04:45.903Z,66.50
2023-01-20T18:07:13.707Z,66.70
2023-01-20T18:09:42.958Z,66.80
2023-01-20T18:12:10.258Z,66.70
2023-01-20T18:14:37.473Z,66.90
2023-01-20T18:17:04.781Z,66.80
2023-01-20T18:19:33.188Z,66.80
2023-01-20T18:22:01.947Z,66.90
2023-01-20T18:24:29.146Z,66.80
2023-01-20T18:26:57.898Z,66.90
2023-01-20T18:29:25.286Z,67.00
2023-01-20T18:31:52.720Z,67.10
2023-01-20T18:34:20.866Z,67.20
2023-01-20T18:36:49.290Z,67.10
2023-01-20T18:39:19.189Z,67.20
2023-01-20T18:41:47.210Z,67.20
2023-01-20T18:44:14.490Z,67.30
2023-01-20T18:46:41.973Z,67.30
2023-01-20T18:49:12.831Z,67.30
2023-01-20T18:51:41.652Z,67.30
2023-01-20T18:54:14.363Z,67.40
2023-01-20T18:56:41.577Z,67.90
2023-01-20T18:59:08.923Z,68.10
2023-01-20T19:01:39.822Z,69.60
2023-01-20T19:04:10.319Z,70.00
2023-01-20T19:06:44.968Z,70.70
2023-01-20T19:09:12.834Z,70.50
2023-01-20T19:11:41.304Z,71.50
2023-01-20T19:14:11.751Z,72.90
2023-01-20T19:16:42.315Z,73.80
2023-01-20T19:19:10.880Z,74.70
2023-01-20T19:21:38.323Z,75.20
2023-01-20T19:24:07.914Z,76.00
2023-01-20T19:26:36.982Z,76.70
2023-01-20T19:29:07.141Z,76.50
2023-01-20T19:31:37.704Z,77.20
2023-01-20T19:34:06.125Z,77.50
2023-01-20T19:36:33.546Z,77.70
2023-01-20T19:39:01.259Z,77.50
2023-01-20T19:41:34.467Z,77.10
2023-01-20T19:44:03.711Z,78.00
2023-01-20T19:46:33.767Z,78.90
2023-01-20T19:49:02.520Z,78.70
2023-01-20T19:51:31.448Z,79.20
2023-01-20T19:54:00.717Z,79.90
2023-01-20T19:56:30.738Z,80.00
2023-01-20T19:59:00.838Z,81.10
2023-01-20T20:01:37.082Z,81.20
2023-01-20T20:04:06.779Z,81.60
2023-01-20T20:06:48.790Z,82.40
2023-01-20T20:09:18.851Z,82.40
2023-01-20T20:11:47.317Z,82.70
2023-01-20T20:14:17.298Z,83.00
2023-01-20T20:16:44.783Z,83.20
2023-01-20T20:19:14.743Z,83.80
2023-01-20T20:21:42.594Z,85.10
2023-01-20T20:24:14.587Z,85.60
2023-01-20T20:26:43.167Z,85.80
2023-01-20T20:29:11.521Z,85.20
2023-01-20T20:31:40.532Z,85.60
2023-01-20T20:34:11.819Z,86.40
2023-01-20T20:36:39.692Z,86.50
2023-01-20T20:39:07.922Z,86.80
2023-01-20T20:41:36.690Z,86.30
2023-01-20T20:44:04.301Z,87.50
2023-01-20T20:46:31.901Z,87.60
2023-01-20T20:49:00.995Z,88.00
2023-01-20T20:51:33.885Z,88.60
2023-01-20T20:54:03.052Z,88.90
2023-01-20T20:56:31.944Z,89.50
2023-01-20T20:59:02.488Z,90.10
2023-01-20T21:01:32.878Z,90.40
2023-01-20T21:04:00.918Z,90.80
2023-01-20T21:06:29.164Z,91.30
2023-01-20T21:08:56.755Z,91.50
2023-01-20T21:11:24.601Z,91.60
2023-01-20T21:13:53.339Z,91.60
2023-01-20T21:16:22.905Z,91.60
2023-01-20T21:18:56.400Z,91.70
2023-01-20T21:21:24.547Z,91.60
2023-01-20T21:23:54.099Z,91.70
2023-01-20T21:26:22.232Z,91.70
2023-01-20T21:28:49.656Z,92.00
2023-01-20T21:31:21.045Z,91.80
2023-01-20T21:33:53.582Z,92.20
2023-01-20T21:36:21.693Z,92.70
2023-01-20T21:38:49.406Z,93.20
2023-01-20T21:41:18.176Z,93.50
2023-01-20T21:44:05.513Z,93.90
2023-01-20T21:46:39.219Z,94.30
2023-01-20T21:49:29.716Z,95.10
2023-01-20T21:52:16.250Z,96.00
2023-01-20T21:54:45.536Z,96.30
2023-01-20T21:57:15.356Z,96.40
2023-01-20T21:59:43.069Z,96.70
2023-01-20T22:02:12.580Z,96.90
2023-01-20T22:04:40.109Z,96.80
2023-01-20T22:07:18.039Z,96.80
2023-01-20T22:09:56.511Z,97.00
2023-01-20T22:12:29.199Z,97.20
2023-01-20T22:15:08.807Z,96.90
2023-01-20T22:17:41.451Z,97.10
2023-01-20T22:20:09.896Z,97.30
2023-01-20T22:22:37.499Z,97.60
2023-01-20T22:25:08.290Z,98.10
2023-01-20T22:27:43.344Z,98.50
2023-01-20T22:30:14.700Z,98.40
2023-01-20T22:32:42.164Z,98.50
2023-01-20T22:35:09.556Z,99.00
2023-01-20T22:37:36.809Z,99.50
2023-01-20T22:40:06.021Z,99.60
2023-01-20T22:42:34.309Z,99.90
2023-01-20T22:45:01.836Z,99.70
2023-01-20T22:47:29.118Z,99.90
2023-01-20T22:49:56.968Z,99.90
2023-01-20T22:52:26.396Z,99.80
2023-01-20T22:54:53.575Z,99.90
2023-01-20T22:57:20.717Z,99.90
2023-01-20T22:59:47.869Z,99.90
2023-01-20T23:02:15.456Z,99.90
2023-01-20T23:04:42.569Z,99.90
2023-01-20T23:07:09.702Z,99.90
2023-01-20T23:09:37.279Z,99.90
2023-01-20T23:12:04.764Z,99.90
2023-01-20T23:14:50.611Z,99.80
2023-01-20T23:17:18.316Z,99.90
2023-01-20T23:19:45.430Z,99.90
2023-01-20T23:22:13.909Z,99.90
2023-01-20T23:24:41.240Z,99.80
2023-01-20T23:27:09.022Z,99.80
2023-01-20T23:29:36.298Z,99.80
2023-01-20T23:32:06.035Z,99.90
2023-01-20T23:34:33.342Z,99.90
2023-01-20T23:37:00.536Z,99.90
2023-01-20T23:39:27.844Z,99.60
2023-01-20T23:41:56.035Z,99.90
2023-01-20T23:44:23.197Z,99.90
2023-01-20T23:46:50.450Z,99.90
2023-01-20T23:49:17.540Z,99.90
2023-01-20T23:51:44.766Z,99.90
2023-01-20T23:54:13.387Z,99.90
2023-01-20T23:56:40.457Z,99.90
2023-01-20T23:59:07.630Z,99.90
